Terminal Aerodrome Forecast
Issued by NWS

Home | Current Version | Previous Version | Text Only | Print | Product List | Glossary On
Versions: 1 2 3 4 5 6 7 8 9 10 11 12 13
000
FTUS46 KSTO 282300
TAFMHR
TAF
KMHR 282331Z 2900/2924 17005KT P6SM SCT100
     FM290300 18005KT P6SM BKN100
     FM290600 VRB04KT 6SM -RA OVC030
      TEMPO 2907/2911 2SM RA BKN020=

USA.gov is the U.S. government's official web portal to all federal, state and local government web resources and services.